createdAt,value
2018-07-09T00:01:24.462Z,17.21
2018-07-09T00:03:51.190Z,17.21
2018-07-09T00:06:17.978Z,17.20
2018-07-09T00:08:44.720Z,17.22
2018-07-09T00:11:11.437Z,17.23
2018-07-09T00:13:38.472Z,17.23
2018-07-09T00:16:05.221Z,17.28
2018-07-09T00:18:31.926Z,17.19
2018-07-09T00:20:58.713Z,17.11
2018-07-09T00:23:25.434Z,17.01
2018-07-09T00:25:52.690Z,16.99
2018-07-09T00:28:20.228Z,17.02
2018-07-09T00:30:46.996Z,17.02
2018-07-09T00:33:14.273Z,17.02
2018-07-09T00:35:41.047Z,16.98
2018-07-09T00:38:07.747Z,16.93
2018-07-09T00:40:34.510Z,16.86
2018-07-09T00:43:01.256Z,16.86
2018-07-09T00:45:28.158Z,16.87
2018-07-09T00:47:54.866Z,16.82
2018-07-09T00:50:21.554Z,16.76
2018-07-09T00:52:48.304Z,16.74
2018-07-09T00:55:15.024Z,16.75
2018-07-09T00:57:41.746Z,16.71
2018-07-09T01:00:08.493Z,16.74
2018-07-09T01:02:35.277Z,16.80
2018-07-09T01:05:02.098Z,16.76
2018-07-09T01:07:28.887Z,16.76
2018-07-09T01:09:55.685Z,16.76
2018-07-09T01:12:22.455Z,16.76
2018-07-09T01:14:50.416Z,16.78
2018-07-09T01:17:17.157Z,16.69
2018-07-09T01:19:43.870Z,16.57
2018-07-09T01:22:10.508Z,16.49
2018-07-09T01:24:37.354Z,16.52
2018-07-09T01:27:04.065Z,16.53
2018-07-09T01:29:30.772Z,16.48
2018-07-09T01:31:57.514Z,16.35
2018-07-09T01:34:24.177Z,16.36
2018-07-09T01:36:51.041Z,16.36
2018-07-09T01:39:17.770Z,16.34
2018-07-09T01:41:44.506Z,16.38
2018-07-09T01:44:11.349Z,16.39
2018-07-09T01:46:38.146Z,16.37
2018-07-09T01:49:04.934Z,16.30
2018-07-09T01:51:31.600Z,16.23
2018-07-09T01:53:58.296Z,16.27
2018-07-09T01:56:25.000Z,16.29
2018-07-09T01:58:51.720Z,16.23
2018-07-09T02:01:18.414Z,16.23
2018-07-09T02:03:45.162Z,16.21
2018-07-09T02:06:11.908Z,16.20
2018-07-09T02:08:38.733Z,16.20
2018-07-09T02:11:05.535Z,16.18
2018-07-09T02:13:32.340Z,16.21
2018-07-09T02:15:59.056Z,16.21
2018-07-09T02:18:25.748Z,16.13
2018-07-09T02:20:52.508Z,16.14
2018-07-09T02:23:19.243Z,16.08
2018-07-09T02:25:45.965Z,16.06
2018-07-09T02:28:12.639Z,16.05
2018-07-09T02:30:39.366Z,16.01
2018-07-09T02:33:06.783Z,15.97
2018-07-09T02:35:33.784Z,15.84
2018-07-09T02:38:00.510Z,15.85
2018-07-09T02:40:27.241Z,15.89
2018-07-09T02:42:53.986Z,15.86
2018-07-09T02:45:20.703Z,15.88
2018-07-09T02:47:47.484Z,15.91
2018-07-09T02:50:14.230Z,15.88
2018-07-09T02:52:40.967Z,15.87
2018-07-09T02:55:07.679Z,15.82
2018-07-09T02:57:34.371Z,15.84
2018-07-09T03:00:01.076Z,15.82
2018-07-09T03:02:27.843Z,15.66
2018-07-09T03:04:54.585Z,15.43
2018-07-09T03:07:21.330Z,15.54
2018-07-09T03:09:48.098Z,15.60
2018-07-09T03:12:14.799Z,15.61
2018-07-09T03:14:44.486Z,15.63
2018-07-09T03:17:11.248Z,15.59
2018-07-09T03:19:37.941Z,15.46
2018-07-09T03:22:04.804Z,15.41
2018-07-09T03:24:31.518Z,15.46
2018-07-09T03:26:58.192Z,15.47
2018-07-09T03:29:24.881Z,15.48
2018-07-09T03:31:51.621Z,15.51
2018-07-09T03:34:18.313Z,15.53
2018-07-09T03:36:45.036Z,15.54
2018-07-09T03:39:11.710Z,15.57
2018-07-09T03:41:38.457Z,15.60
2018-07-09T03:44:05.189Z,15.51
2018-07-09T03:46:33.638Z,15.28
2018-07-09T03:49:00.366Z,15.19
2018-07-09T03:51:27.475Z,15.24
2018-07-09T03:53:54.171Z,15.34
2018-07-09T03:56:22.562Z,15.39
2018-07-09T03:58:49.285Z,15.37
2018-07-09T04:01:16.781Z,15.32
2018-07-09T04:03:43.521Z,15.28
2018-07-09T04:06:10.226Z,15.31
2018-07-09T04:08:36.917Z,15.28
2018-07-09T04:11:03.633Z,15.30
2018-07-09T04:13:30.325Z,15.35
2018-07-09T04:15:57.049Z,15.30
2018-07-09T04:18:24.785Z,15.28
2018-07-09T04:20:52.668Z,15.21
2018-07-09T04:23:19.422Z,15.24
2018-07-09T04:25:46.143Z,15.27
2018-07-09T04:28:12.907Z,15.41
2018-07-09T04:30:39.648Z,15.46
2018-07-09T04:33:08.384Z,15.50
2018-07-09T04:35:35.114Z,15.41
2018-07-09T04:38:02.580Z,15.25
2018-07-09T04:40:29.268Z,15.31
2018-07-09T04:42:56.046Z,15.39
2018-07-09T04:45:22.728Z,15.40
2018-07-09T04:47:49.555Z,15.44
2018-07-09T04:50:16.291Z,15.61
2018-07-09T04:52:43.029Z,15.71
2018-07-09T04:55:09.756Z,15.83
2018-07-09T04:57:36.789Z,15.90
2018-07-09T05:00:03.854Z,16.02
2018-07-09T05:02:30.590Z,16.10
2018-07-09T05:04:58.557Z,16.19
2018-07-09T05:07:25.263Z,16.27
2018-07-09T05:09:53.606Z,16.36
2018-07-09T05:12:20.317Z,16.43
2018-07-09T05:14:49.304Z,16.48
2018-07-09T05:17:16.109Z,16.45
2018-07-09T05:19:42.864Z,16.62
2018-07-09T05:22:09.648Z,16.68
2018-07-09T05:24:36.364Z,16.77
2018-07-09T05:27:03.088Z,16.80
2018-07-09T05:29:29.888Z,16.85
2018-07-09T05:31:56.590Z,16.87
2018-07-09T05:34:23.334Z,16.88
2018-07-09T05:36:50.045Z,16.94
2018-07-09T05:39:16.807Z,17.06
2018-07-09T05:41:43.574Z,17.19
2018-07-09T05:44:10.322Z,17.33
2018-07-09T05:46:38.836Z,17.45
2018-07-09T05:49:05.681Z,17.49
2018-07-09T05:51:33.016Z,17.63
2018-07-09T05:53:59.726Z,17.73
2018-07-09T05:56:26.461Z,17.90
2018-07-09T05:58:53.240Z,17.99
2018-07-09T06:01:19.975Z,18.03
2018-07-09T06:03:46.668Z,18.03
2018-07-09T06:06:13.527Z,18.34
2018-07-09T06:08:40.871Z,18.52
2018-07-09T06:11:07.591Z,18.75
2018-07-09T06:13:34.480Z,18.98
2018-07-09T06:16:01.106Z,19.26
2018-07-09T06:18:29.067Z,19.45
2018-07-09T06:20:55.801Z,19.74
2018-07-09T06:23:24.945Z,19.99
2018-07-09T06:25:51.612Z,20.28
2018-07-09T06:28:18.364Z,20.49
2018-07-09T06:30:45.237Z,20.77
2018-07-09T06:33:12.003Z,20.95
2018-07-09T06:35:38.726Z,21.11
2018-07-09T06:38:05.398Z,21.22
2018-07-09T06:40:32.162Z,21.30
2018-07-09T06:42:58.934Z,21.48
2018-07-09T06:45:25.646Z,21.65
2018-07-09T06:47:52.321Z,21.82
2018-07-09T06:50:20.596Z,21.90
2018-07-09T06:52:47.495Z,21.99
2018-07-09T06:55:14.166Z,22.08
2018-07-09T06:57:40.946Z,22.16
2018-07-09T07:00:10.681Z,22.22
2018-07-09T07:02:40.094Z,22.39
2018-07-09T07:05:06.798Z,22.38
2018-07-09T07:07:33.535Z,22.42
2018-07-09T07:10:00.300Z,22.61
2018-07-09T07:12:27.002Z,22.81
2018-07-09T07:14:54.881Z,22.87
2018-07-09T07:17:21.610Z,22.94
2018-07-09T07:19:48.384Z,23.17
2018-07-09T07:22:15.098Z,23.24
2018-07-09T07:24:42.624Z,23.42
2018-07-09T07:27:09.304Z,23.63
2018-07-09T07:29:36.003Z,23.63
2018-07-09T07:32:02.918Z,23.56
2018-07-09T07:34:29.618Z,23.68
2018-07-09T07:36:56.341Z,23.77
2018-07-09T07:39:23.048Z,23.87
2018-07-09T07:41:49.802Z,24.08
2018-07-09T07:44:16.520Z,24.04
2018-07-09T07:46:43.241Z,24.22
2018-07-09T07:49:09.962Z,24.15
2018-07-09T07:51:36.774Z,24.29
2018-07-09T07:54:03.485Z,24.35
2018-07-09T07:56:30.192Z,24.44
2018-07-09T07:58:57.013Z,24.45
2018-07-09T08:01:23.847Z,24.70
2018-07-09T08:03:50.716Z,24.67
2018-07-09T08:06:17.477Z,24.66
2018-07-09T08:08:45.104Z,24.73
2018-07-09T08:11:11.833Z,24.69
2018-07-09T08:13:40.058Z,24.71
2018-07-09T08:16:07.054Z,25.10
2018-07-09T08:18:35.146Z,25.14
2018-07-09T08:21:01.793Z,25.19
2018-07-09T08:23:28.487Z,25.24
2018-07-09T08:25:55.280Z,25.29
2018-07-09T08:28:22.014Z,25.53
2018-07-09T08:30:48.793Z,25.63
2018-07-09T08:33:15.529Z,25.60
2018-07-09T08:35:42.291Z,25.56
2018-07-09T08:38:08.955Z,25.61
2018-07-09T08:40:35.692Z,25.67
2018-07-09T08:43:02.530Z,25.64
2018-07-09T08:45:30.582Z,25.90
2018-07-09T08:47:57.292Z,25.78
2018-07-09T08:50:25.001Z,25.74
2018-07-09T08:52:51.811Z,25.72
2018-07-09T08:55:20.108Z,26.00
2018-07-09T08:57:46.802Z,26.15
2018-07-09T09:00:13.528Z,26.31
2018-07-09T09:02:40.262Z,26.41
2018-07-09T09:05:07.113Z,26.54
2018-07-09T09:07:34.045Z,26.73
2018-07-09T09:10:00.889Z,26.74
2018-07-09T09:12:27.508Z,27.04
2018-07-09T09:14:54.413Z,27.02
2018-07-09T09:17:21.118Z,27.22
2018-07-09T09:19:47.831Z,27.42
2018-07-09T09:22:17.014Z,27.61
2018-07-09T09:24:44.501Z,27.80
2018-07-09T09:27:11.916Z,27.90
2018-07-09T09:29:39.289Z,28.06
2018-07-09T09:32:06.667Z,28.02
2018-07-09T09:34:34.049Z,28.34
2018-07-09T09:37:01.341Z,28.60
2018-07-09T09:39:28.733Z,28.47
2018-07-09T09:41:55.994Z,28.39
2018-07-09T09:44:23.354Z,28.34
2018-07-09T09:46:50.724Z,28.32
2018-07-09T09:49:18.223Z,28.32
2018-07-09T09:51:45.521Z,28.50
2018-07-09T09:54:12.838Z,28.50
2018-07-09T09:56:40.134Z,28.53
2018-07-09T09:59:07.427Z,28.50
2018-07-09T10:01:34.716Z,28.64
2018-07-09T10:04:01.988Z,28.68
2018-07-09T10:06:29.299Z,28.86
2018-07-09T10:08:56.660Z,29.06
2018-07-09T10:11:24.046Z,29.05
2018-07-09T10:13:51.472Z,29.51
2018-07-09T10:16:18.722Z,29.46
2018-07-09T10:18:46.031Z,30.13
2018-07-09T10:21:13.306Z,30.12
2018-07-09T10:23:40.739Z,30.35
2018-07-09T10:26:09.151Z,29.83
2018-07-09T10:28:36.579Z,29.82
2018-07-09T10:31:03.960Z,29.99
2018-07-09T10:33:31.388Z,29.96
2018-07-09T10:35:58.698Z,30.31
2018-07-09T10:38:26.068Z,30.36
2018-07-09T10:40:53.437Z,30.11
2018-07-09T10:43:20.755Z,30.28
2018-07-09T10:45:48.137Z,29.66
2018-07-09T10:48:15.467Z,29.67
2018-07-09T10:50:42.848Z,30.06
2018-07-09T10:53:10.206Z,29.88
2018-07-09T10:55:37.564Z,29.52
2018-07-09T10:58:04.948Z,29.58
2018-07-09T11:00:32.196Z,29.56
2018-07-09T11:02:59.739Z,29.53
2018-07-09T11:05:27.122Z,29.35
2018-07-09T11:07:54.312Z,29.85
2018-07-09T11:10:21.654Z,29.91
2018-07-09T11:12:49.037Z,30.18
2018-07-09T11:15:16.309Z,30.60
2018-07-09T11:17:43.614Z,30.58
2018-07-09T11:20:11.004Z,30.96
2018-07-09T11:22:38.333Z,30.90
2018-07-09T11:25:05.708Z,31.26
2018-07-09T11:27:33.131Z,31.15
2018-07-09T11:30:00.378Z,30.69
2018-07-09T11:32:28.152Z,30.23
2018-07-09T11:34:55.488Z,30.27
2018-07-09T11:37:22.782Z,30.05
2018-07-09T11:39:50.098Z,30.49
2018-07-09T11:42:17.433Z,30.51
2018-07-09T11:44:44.708Z,30.97
2018-07-09T11:47:12.006Z,31.29
2018-07-09T11:49:39.378Z,31.07
2018-07-09T11:52:06.794Z,30.60
2018-07-09T11:54:34.084Z,30.54
2018-07-09T11:57:01.459Z,31.05
2018-07-09T11:59:28.794Z,31.13
2018-07-09T12:01:56.151Z,31.41
2018-07-09T12:04:23.450Z,31.61
2018-07-09T12:06:50.766Z,31.90
2018-07-09T12:09:18.088Z,31.89
2018-07-09T12:11:45.385Z,31.43
2018-07-09T12:14:12.783Z,31.51
2018-07-09T12:16:40.041Z,31.62
2018-07-09T12:19:07.283Z,31.50
2018-07-09T12:21:34.751Z,31.76
2018-07-09T12:24:02.001Z,32.00
2018-07-09T12:26:29.402Z,31.86
2018-07-09T12:28:56.793Z,32.17
2018-07-09T12:31:24.201Z,31.91
2018-07-09T12:33:51.408Z,32.07
2018-07-09T12:36:18.822Z,32.53
2018-07-09T12:38:46.112Z,32.79
2018-07-09T12:41:13.458Z,32.77
2018-07-09T12:43:40.793Z,32.79
2018-07-09T12:46:08.208Z,32.96
2018-07-09T12:48:35.661Z,32.93
2018-07-09T12:51:03.012Z,32.13
2018-07-09T12:53:30.336Z,31.58
2018-07-09T12:55:57.692Z,31.34
2018-07-09T12:58:25.108Z,32.22
2018-07-09T13:00:52.485Z,32.49
2018-07-09T13:03:19.862Z,32.79
2018-07-09T13:05:47.120Z,33.43
2018-07-09T13:08:14.448Z,33.48
2018-07-09T13:10:41.894Z,32.78
2018-07-09T13:13:09.307Z,32.89
2018-07-09T13:15:36.661Z,33.03
2018-07-09T13:18:04.042Z,33.29
2018-07-09T13:20:31.445Z,33.64
2018-07-09T13:22:58.862Z,33.93
2018-07-09T13:25:26.423Z,33.95
2018-07-09T13:27:53.863Z,33.36
2018-07-09T13:30:21.168Z,33.14
2018-07-09T13:32:48.495Z,33.22
2018-07-09T13:35:15.764Z,33.53
2018-07-09T13:37:43.100Z,33.85
2018-07-09T13:40:10.514Z,33.55
2018-07-09T13:42:38.355Z,33.62
2018-07-09T13:45:05.723Z,33.48
2018-07-09T13:47:33.272Z,33.52
2018-07-09T13:50:00.746Z,33.48
2018-07-09T13:52:28.080Z,32.90
2018-07-09T13:54:55.435Z,32.17
2018-07-09T13:57:22.764Z,31.28
2018-07-09T13:59:50.109Z,31.58
2018-07-09T14:02:17.441Z,32.43
2018-07-09T14:04:44.750Z,32.56
2018-07-09T14:07:12.102Z,32.77
2018-07-09T14:09:39.397Z,33.10
2018-07-09T14:12:06.760Z,33.20
2018-07-09T14:14:33.986Z,33.37
2018-07-09T14:17:01.354Z,32.85
2018-07-09T14:20:38.197Z,33.05
2018-07-09T14:23:06.345Z,33.17
2018-07-09T14:25:33.721Z,33.23
2018-07-09T14:28:01.083Z,33.00
2018-07-09T14:30:28.489Z,32.84
2018-07-09T14:32:55.835Z,33.10
2018-07-09T14:35:23.192Z,32.99
2018-07-09T14:37:50.485Z,32.99
2018-07-09T14:40:17.849Z,32.87
2018-07-09T14:42:45.205Z,32.93
2018-07-09T14:45:12.751Z,32.95
2018-07-09T14:47:40.078Z,32.74
2018-07-09T14:50:07.430Z,32.57
2018-07-09T14:52:34.706Z,32.60
2018-07-09T14:55:02.007Z,32.83
2018-07-09T14:57:29.394Z,32.95
2018-07-09T14:59:56.881Z,32.55
2018-07-09T15:02:24.256Z,32.76
2018-07-09T15:04:51.891Z,32.98
2018-07-09T15:07:19.309Z,32.97
2018-07-09T15:09:46.662Z,32.61
2018-07-09T15:12:13.965Z,32.11
2018-07-09T15:14:41.303Z,32.39
2018-07-09T15:17:09.125Z,32.10
2018-07-09T15:19:36.451Z,32.08
2018-07-09T15:22:03.813Z,32.12
2018-07-09T15:24:31.175Z,32.18
2018-07-09T15:26:58.466Z,31.74
2018-07-09T15:29:25.838Z,31.14
2018-07-09T15:32:04.653Z,31.02
2018-07-09T15:34:31.925Z,31.21
2018-07-09T15:36:59.211Z,31.16
2018-07-09T15:39:26.544Z,30.76
2018-07-09T15:41:53.881Z,30.75
2018-07-09T15:44:24.938Z,30.56
2018-07-09T15:46:55.366Z,30.65
2018-07-09T15:49:22.713Z,30.88
2018-07-09T15:51:51.223Z,31.16
2018-07-09T15:54:18.590Z,31.33
2018-07-09T15:56:45.967Z,31.60
2018-07-09T15:59:13.321Z,31.68
2018-07-09T16:01:40.655Z,31.62
2018-07-09T16:04:08.023Z,31.27
2018-07-09T16:06:35.433Z,31.01
2018-07-09T16:09:04.265Z,30.78
2018-07-09T16:11:31.643Z,30.61
2018-07-09T16:13:58.973Z,30.17
2018-07-09T16:16:26.354Z,30.03
2018-07-09T16:18:53.725Z,30.13
2018-07-09T16:21:21.057Z,29.70
2018-07-09T16:23:48.605Z,29.84
2018-07-09T16:26:15.945Z,30.24
2018-07-09T16:28:43.355Z,30.00
2018-07-09T16:31:10.792Z,29.91
2018-07-09T16:33:38.063Z,29.81
2018-07-09T16:36:05.423Z,29.82
2018-07-09T16:38:32.860Z,29.72
2018-07-09T16:41:00.131Z,29.18
2018-07-09T16:43:27.483Z,29.21
2018-07-09T16:45:55.111Z,29.18
2018-07-09T16:48:22.488Z,29.25
2018-07-09T16:50:50.728Z,29.31
2018-07-09T16:53:18.204Z,29.09
2018-07-09T16:55:45.567Z,29.04
2018-07-09T16:58:12.982Z,28.94
2018-07-09T17:00:40.486Z,28.96
2018-07-09T17:03:08.395Z,28.82
2018-07-09T17:05:35.701Z,28.75
2018-07-09T17:08:04.522Z,28.69
2018-07-09T17:10:31.908Z,28.58
2018-07-09T17:13:00.033Z,28.37
2018-07-09T17:15:27.274Z,28.09
2018-07-09T17:17:54.634Z,28.02
2018-07-09T17:20:21.883Z,27.90
2018-07-09T17:22:49.223Z,28.02
2018-07-09T17:25:16.539Z,27.92
2018-07-09T17:27:43.817Z,27.86
2018-07-09T17:30:11.237Z,27.44
2018-07-09T17:32:38.689Z,27.54
2018-07-09T17:35:06.077Z,27.61
2018-07-09T17:37:33.520Z,27.68
2018-07-09T17:40:00.927Z,27.55
2018-07-09T17:42:28.296Z,27.63
2018-07-09T17:44:55.585Z,27.46
2018-07-09T17:47:22.899Z,27.57
2018-07-09T17:49:50.298Z,27.58
2018-07-09T17:52:17.653Z,27.54
2018-07-09T17:54:45.008Z,27.39
2018-07-09T17:57:12.500Z,27.13
2018-07-09T17:59:39.868Z,26.98
2018-07-09T18:02:07.237Z,26.99
2018-07-09T18:04:34.494Z,26.87
2018-07-09T18:07:01.872Z,26.69
2018-07-09T18:09:29.177Z,26.70
2018-07-09T18:11:56.545Z,26.62
2018-07-09T18:14:24.162Z,26.55
2018-07-09T18:16:51.475Z,26.54
2018-07-09T18:19:19.906Z,26.32
2018-07-09T18:21:47.232Z,26.20
2018-07-09T18:24:15.327Z,26.26
2018-07-09T18:26:42.558Z,26.25
2018-07-09T18:29:09.906Z,26.19
2018-07-09T18:31:40.906Z,26.20
2018-07-09T18:34:08.225Z,26.16
2018-07-09T18:36:35.644Z,26.13
2018-07-09T18:39:03.996Z,26.12
2018-07-09T18:41:31.320Z,26.07
2018-07-09T18:43:59.671Z,26.01
2018-07-09T18:46:26.976Z,25.92
2018-07-09T18:48:54.366Z,25.78
2018-07-09T18:51:21.759Z,25.59
2018-07-09T18:53:49.118Z,25.50
2018-07-09T18:56:16.487Z,25.44
2018-07-09T18:58:43.811Z,25.43
2018-07-09T19:01:11.121Z,25.42
2018-07-09T19:03:38.484Z,25.29
2018-07-09T19:06:15.524Z,25.17
2018-07-09T19:08:42.957Z,24.91
2018-07-09T19:11:10.246Z,24.88
2018-07-09T19:13:37.592Z,24.82
2018-07-09T19:16:04.978Z,24.67
2018-07-09T19:18:44.047Z,24.72
2018-07-09T19:21:30.129Z,24.68
2018-07-09T19:23:56.651Z,24.64
2018-07-09T19:26:22.881Z,24.64
2018-07-09T19:28:49.303Z,24.63
2018-07-09T19:31:15.894Z,24.57
2018-07-09T19:33:42.129Z,24.51
2018-07-09T19:36:08.533Z,24.48
2018-07-09T19:38:35.203Z,24.45
2018-07-09T19:41:01.469Z,24.31
2018-07-09T19:43:28.418Z,24.31
2018-07-09T19:45:54.653Z,24.19
2018-07-09T19:48:20.882Z,24.20
2018-07-09T19:50:47.606Z,24.14
2018-07-09T19:53:13.948Z,24.03
2018-07-09T19:55:40.525Z,23.76
2018-07-09T19:58:06.774Z,23.56
2018-07-09T20:00:33.947Z,23.62
2018-07-09T20:03:02.192Z,23.65
2018-07-09T20:05:28.648Z,23.62
2018-07-09T20:07:56.506Z,23.65
2018-07-09T20:10:28.510Z,23.51
2018-07-09T20:13:00.088Z,23.50
2018-07-09T20:15:32.156Z,23.48
2018-07-09T20:17:58.375Z,23.47
2018-07-09T20:20:24.907Z,23.38
2018-07-09T20:22:51.285Z,23.38
2018-07-09T20:25:17.793Z,23.28
2018-07-09T20:27:44.018Z,23.28
2018-07-09T20:30:10.406Z,23.12
2018-07-09T20:32:36.686Z,23.17
2018-07-09T20:35:02.982Z,23.12
2018-07-09T20:37:29.218Z,23.13
2018-07-09T20:39:55.611Z,23.19
2018-07-09T20:42:21.835Z,23.18
2018-07-09T20:44:48.529Z,23.08
2018-07-09T20:47:14.949Z,23.03
2018-07-09T20:49:42.236Z,22.96
2018-07-09T20:52:08.512Z,22.82
2018-07-09T20:54:34.711Z,22.84
2018-07-09T20:57:00.917Z,22.89
2018-07-09T20:59:27.131Z,22.74
2018-07-09T21:01:53.450Z,22.72
2018-07-09T21:04:28.576Z,22.68
2018-07-09T21:06:56.180Z,22.57
2018-07-09T21:09:22.597Z,22.43
2018-07-09T21:11:48.873Z,22.29
2018-07-09T21:14:15.103Z,22.24
2018-07-09T21:16:41.759Z,22.18
2018-07-09T21:19:08.663Z,22.10
2018-07-09T21:21:34.935Z,22.07
2018-07-09T21:24:01.189Z,22.07
2018-07-09T21:26:27.436Z,21.99
2018-07-09T21:28:53.751Z,21.98
2018-07-09T21:31:19.967Z,21.87
2018-07-09T21:33:46.203Z,21.84
2018-07-09T21:36:12.774Z,21.74
2018-07-09T21:38:39.754Z,21.76
2018-07-09T21:41:05.932Z,21.76
2018-07-09T21:43:32.518Z,21.74
2018-07-09T21:45:58.916Z,21.79
2018-07-09T21:48:29.780Z,21.78
2018-07-09T21:50:52.033Z,21.83
2018-07-09T21:53:18.288Z,21.73
2018-07-09T21:55:44.491Z,21.68
2018-07-09T21:58:12.590Z,21.76
2018-07-09T22:00:38.795Z,21.77
2018-07-09T22:03:06.704Z,21.65
2018-07-09T22:05:32.970Z,21.57
2018-07-09T22:08:02.756Z,21.51
2018-07-09T22:10:28.958Z,21.45
2018-07-09T22:12:55.134Z,21.37
2018-07-09T22:15:21.367Z,21.21
2018-07-09T22:17:47.574Z,21.24
2018-07-09T22:20:13.758Z,21.23
2018-07-09T22:22:40.008Z,21.27
2018-07-09T22:25:08.004Z,21.31
2018-07-09T22:27:34.193Z,21.35
2018-07-09T22:30:03.459Z,21.32
2018-07-09T22:32:30.793Z,21.11
2018-07-09T22:34:58.197Z,21.19
2018-07-09T22:37:25.546Z,21.20
2018-07-09T22:39:52.890Z,21.21
2018-07-09T22:42:20.163Z,21.24
2018-07-09T22:44:47.838Z,21.24
2018-07-09T22:47:15.207Z,21.14
2018-07-09T22:49:42.822Z,21.07
2018-07-09T22:52:10.151Z,21.10
2018-07-09T22:54:37.811Z,21.16
2018-07-09T22:57:05.261Z,21.23
2018-07-09T22:59:32.575Z,21.18
2018-07-09T23:01:59.939Z,21.15
2018-07-09T23:04:27.194Z,21.17
2018-07-09T23:06:54.541Z,21.05
2018-07-09T23:12:44.605Z,20.92
2018-07-09T23:15:49.814Z,20.74
2018-07-09T23:18:28.744Z,20.73
2018-07-09T23:23:08.370Z,20.77
2018-07-09T23:25:34.623Z,20.83
2018-07-09T23:28:00.843Z,21.00
2018-07-09T23:30:27.004Z,20.83
2018-07-09T23:32:53.260Z,21.08
2018-07-09T23:35:19.634Z,21.10
2018-07-09T23:37:45.917Z,20.99
2018-07-09T23:40:12.113Z,20.83
2018-07-09T23:42:38.269Z,20.57
2018-07-09T23:45:04.509Z,20.24
2018-07-09T23:47:30.740Z,20.10
2018-07-09T23:49:56.961Z,20.06
2018-07-09T23:52:23.169Z,20.07
2018-07-09T23:54:49.418Z,20.07
2018-07-09T23:57:28.334Z,20.14
